createdAt,value
2022-08-17T00:00:08.240Z,999.11
2022-08-17T00:01:08.309Z,999.14
2022-08-17T00:02:18.728Z,999.12
2022-08-17T00:03:08.237Z,999.11
2022-08-17T00:04:11.730Z,999.10
2022-08-17T00:05:08.230Z,999.12
2022-08-17T00:06:08.225Z,999.09
2022-08-17T00:07:08.223Z,999.09
2022-08-17T00:08:08.218Z,999.08
2022-08-17T00:09:08.214Z,999.07
2022-08-17T00:10:08.212Z,999.08
2022-08-17T00:11:08.212Z,999.06
2022-08-17T00:12:42.620Z,999.06
2022-08-17T00:13:08.205Z,999.04
2022-08-17T00:14:08.197Z,999.11
2022-08-17T00:15:10.450Z,999.10
2022-08-17T00:16:08.194Z,999.11
2022-08-17T00:17:08.193Z,999.10
2022-08-17T00:18:58.300Z,999.10
2022-08-17T00:19:08.846Z,999.08
2022-08-17T00:20:08.177Z,999.13
2022-08-17T00:21:10.597Z,999.12
2022-08-17T00:22:32.942Z,999.11
2022-08-17T00:23:08.176Z,999.12
2022-08-17T00:24:08.168Z,999.12
2022-08-17T00:25:08.179Z,999.14
2022-08-17T00:26:08.164Z,999.15
2022-08-17T00:27:08.165Z,999.11
2022-08-17T00:28:08.160Z,999.11
2022-08-17T00:29:08.171Z,999.09
2022-08-17T00:30:08.153Z,999.07
2022-08-17T00:31:08.152Z,999.09
2022-08-17T00:33:13.638Z,999.06
2022-08-17T00:33:15.854Z,999.04
2022-08-17T00:34:08.141Z,999.05
2022-08-17T00:35:08.138Z,999.03
2022-08-17T00:36:08.134Z,999.01
2022-08-17T00:37:08.131Z,999.01
2022-08-17T00:38:08.129Z,999.02
2022-08-17T00:39:08.127Z,999.01
2022-08-17T00:40:08.185Z,998.97
2022-08-17T00:41:08.119Z,998.97
2022-08-17T00:42:08.116Z,998.96
2022-08-17T00:43:08.114Z,998.96
2022-08-17T00:44:08.105Z,998.93
2022-08-17T00:45:08.111Z,998.91
2022-08-17T00:46:08.104Z,998.90
2022-08-17T00:47:08.102Z,998.89
2022-08-17T00:48:11.539Z,998.92
2022-08-17T00:49:08.091Z,998.93
2022-08-17T00:50:08.090Z,998.94
2022-08-17T00:51:08.093Z,998.99
2022-08-17T00:52:11.763Z,998.95
2022-08-17T00:53:08.081Z,998.99
2022-08-17T00:54:08.077Z,999.01
2022-08-17T00:55:08.081Z,998.97
2022-08-17T00:56:08.070Z,998.96
2022-08-17T00:57:08.070Z,998.99
2022-08-17T00:58:08.065Z,998.96
2022-08-17T00:59:08.063Z,998.96
2022-08-17T01:00:08.058Z,998.98
2022-08-17T01:01:08.111Z,998.95
2022-08-17T01:02:08.052Z,998.95
2022-08-17T01:03:08.053Z,998.94
2022-08-17T01:04:08.042Z,998.97
2022-08-17T01:05:08.046Z,998.96
2022-08-17T01:06:08.102Z,998.91
2022-08-17T01:07:08.041Z,998.93
2022-08-17T01:08:08.051Z,998.93
2022-08-17T01:09:08.030Z,998.93
2022-08-17T01:10:08.031Z,998.92
2022-08-17T01:11:08.024Z,998.92
2022-08-17T01:12:08.062Z,998.92
2022-08-17T01:13:08.015Z,998.91
2022-08-17T01:14:08.028Z,998.95
2022-08-17T01:15:08.011Z,998.94
2022-08-17T01:16:08.012Z,998.96
2022-08-17T01:17:08.008Z,998.95
2022-08-17T01:18:08.002Z,998.91
2022-08-17T01:19:08.014Z,998.90
2022-08-17T01:20:08.035Z,998.93
2022-08-17T01:21:08.022Z,998.94
2022-08-17T01:22:08.016Z,998.93
2022-08-17T01:23:08.015Z,998.92
2022-08-17T01:24:07.982Z,998.89
2022-08-17T01:25:08.005Z,998.91
2022-08-17T01:26:07.998Z,998.88
2022-08-17T01:27:10.276Z,998.88
2022-08-17T01:28:07.971Z,998.83
2022-08-17T01:29:07.964Z,998.81
2022-08-17T01:30:58.199Z,998.83
2022-08-17T01:31:07.960Z,998.87
2022-08-17T01:32:07.954Z,998.86
2022-08-17T01:33:07.965Z,998.86
2022-08-17T01:34:07.947Z,998.91
2022-08-17T01:35:07.952Z,998.90
2022-08-17T01:36:07.940Z,998.89
2022-08-17T01:37:07.941Z,998.87
2022-08-17T01:38:07.937Z,998.88
2022-08-17T01:39:08.010Z,998.91
2022-08-17T01:40:07.956Z,998.90
2022-08-17T01:41:07.970Z,998.89
2022-08-17T01:42:07.947Z,998.93
2022-08-17T01:43:07.974Z,998.90
2022-08-17T01:44:07.916Z,998.98
2022-08-17T01:45:07.911Z,998.95
2022-08-17T01:46:07.912Z,998.92
2022-08-17T01:47:08.005Z,998.97
2022-08-17T01:48:07.899Z,998.93
2022-08-17T01:49:07.912Z,998.93
2022-08-17T01:50:07.896Z,998.92
2022-08-17T01:51:07.893Z,998.96
2022-08-17T01:52:07.903Z,998.93
2022-08-17T01:53:07.884Z,998.93
2022-08-17T01:54:07.881Z,998.87
2022-08-17T01:55:07.916Z,998.93
2022-08-17T01:56:07.925Z,998.92
2022-08-17T01:57:07.896Z,998.92
2022-08-17T01:58:07.868Z,998.89
2022-08-17T01:59:07.874Z,998.91
2022-08-17T02:00:07.861Z,998.91
2022-08-17T02:01:07.927Z,998.92
2022-08-17T02:02:07.875Z,998.89
2022-08-17T02:03:07.896Z,998.93
2022-08-17T02:04:07.865Z,998.94
2022-08-17T02:05:07.856Z,998.92
2022-08-17T02:06:16.053Z,998.90
2022-08-17T02:07:07.837Z,998.92
2022-08-17T02:08:07.839Z,998.89
2022-08-17T02:09:07.821Z,998.87
2022-08-17T02:10:16.719Z,998.91
2022-08-17T02:11:11.196Z,998.88
2022-08-17T02:12:37.851Z,998.93
2022-08-17T02:13:07.808Z,998.91
2022-08-17T02:14:07.833Z,998.90
2022-08-17T02:15:07.847Z,998.92
2022-08-17T02:16:07.796Z,998.90
2022-08-17T02:17:07.803Z,998.90
2022-08-17T02:18:07.815Z,998.93
2022-08-17T02:19:07.798Z,998.89
2022-08-17T02:20:07.804Z,998.91
2022-08-17T02:21:07.791Z,998.89
2022-08-17T02:22:07.784Z,998.89
2022-08-17T02:23:07.778Z,998.90
2022-08-17T02:24:07.773Z,998.91
2022-08-17T02:25:07.781Z,998.93
2022-08-17T02:26:07.809Z,998.93
2022-08-17T02:27:07.783Z,998.91
2022-08-17T02:28:07.773Z,998.90
2022-08-17T02:29:07.756Z,998.93
2022-08-17T02:31:00.912Z,998.91
2022-08-17T02:31:07.758Z,998.90
2022-08-17T02:32:07.748Z,998.93
2022-08-17T02:33:09.217Z,998.90
2022-08-17T02:34:07.749Z,998.89
2022-08-17T02:35:07.755Z,998.90
2022-08-17T02:36:07.729Z,998.88
2022-08-17T02:37:07.731Z,998.89
2022-08-17T02:38:07.736Z,998.91
2022-08-17T02:39:07.718Z,998.88
2022-08-17T02:40:07.746Z,998.89
2022-08-17T02:41:07.732Z,998.87
2022-08-17T02:42:07.715Z,998.86
2022-08-17T02:43:07.712Z,998.88
2022-08-17T02:44:07.722Z,998.88
2022-08-17T02:45:07.708Z,998.90
2022-08-17T02:46:07.707Z,998.89
2022-08-17T02:47:07.794Z,998.87
2022-08-17T02:48:07.703Z,998.89
2022-08-17T02:49:07.686Z,998.91
2022-08-17T02:50:07.681Z,998.90
2022-08-17T02:51:07.686Z,998.89
2022-08-17T02:52:07.687Z,998.88
2022-08-17T02:53:07.957Z,998.88
2022-08-17T02:54:40.499Z,998.90
2022-08-17T02:55:07.713Z,998.89
2022-08-17T02:56:07.668Z,998.89
2022-08-17T02:57:07.645Z,998.91
2022-08-17T02:58:07.657Z,998.92
2022-08-17T02:59:07.676Z,998.92
2022-08-17T03:00:07.648Z,998.92
2022-08-17T03:01:07.659Z,998.96
2022-08-17T03:02:07.717Z,998.97
2022-08-17T03:03:07.657Z,998.96
2022-08-17T03:04:07.628Z,999.00
2022-08-17T03:05:07.690Z,998.98
2022-08-17T03:06:07.687Z,998.99
2022-08-17T03:07:07.651Z,998.99
2022-08-17T03:08:07.626Z,999.05
2022-08-17T03:09:07.621Z,999.01
2022-08-17T03:10:07.609Z,999.00
2022-08-17T03:11:07.606Z,999.00
2022-08-17T03:12:07.628Z,998.98
2022-08-17T03:13:07.599Z,998.98
2022-08-17T03:14:07.582Z,999.02
2022-08-17T03:15:07.618Z,999.00
2022-08-17T03:16:07.580Z,999.00
2022-08-17T03:17:07.580Z,999.02
2022-08-17T03:18:07.584Z,999.02
2022-08-17T03:19:07.571Z,999.03
2022-08-17T03:20:07.574Z,999.03
2022-08-17T03:21:07.564Z,999.02
2022-08-17T03:22:35.712Z,999.02
2022-08-17T03:23:07.556Z,999.02
2022-08-17T03:24:08.874Z,999.04
2022-08-17T03:25:10.816Z,999.04
2022-08-17T03:26:12.271Z,999.02
2022-08-17T03:27:07.546Z,999.01
2022-08-17T03:28:07.540Z,999.02
2022-08-17T03:29:07.530Z,999.04
2022-08-17T03:30:07.537Z,999.01
2022-08-17T03:31:07.527Z,999.04
2022-08-17T03:32:07.522Z,999.03
2022-08-17T03:33:07.575Z,999.03
2022-08-17T03:34:07.546Z,999.05
2022-08-17T03:35:07.514Z,999.02
2022-08-17T03:36:07.515Z,999.00
2022-08-17T03:37:07.501Z,998.97
2022-08-17T03:38:07.505Z,998.99
2022-08-17T03:39:07.506Z,999.01
2022-08-17T03:40:07.526Z,998.95
2022-08-17T03:41:07.496Z,998.96
2022-08-17T03:42:07.499Z,998.97
2022-08-17T03:43:07.496Z,998.94
2022-08-17T03:44:07.552Z,998.92
2022-08-17T03:45:07.490Z,998.93
2022-08-17T03:46:20.738Z,998.93
2022-08-17T03:47:07.470Z,998.95
2022-08-17T03:48:07.458Z,998.91
2022-08-17T03:49:07.459Z,998.90
2022-08-17T03:50:10.385Z,998.94
2022-08-17T03:51:11.432Z,998.91
2022-08-17T03:52:07.470Z,998.89
2022-08-17T03:53:07.447Z,998.89
2022-08-17T03:54:07.723Z,998.87
2022-08-17T03:55:07.435Z,998.90
2022-08-17T03:56:07.436Z,998.93
2022-08-17T03:57:07.435Z,998.84
2022-08-17T03:58:07.426Z,998.84
2022-08-17T03:59:07.427Z,998.85
2022-08-17T04:00:07.414Z,998.83
2022-08-17T04:01:07.476Z,998.83
2022-08-17T04:02:07.406Z,998.82
2022-08-17T04:03:07.411Z,998.86
2022-08-17T04:04:07.411Z,998.82
2022-08-17T04:05:07.460Z,998.82
2022-08-17T04:06:07.392Z,998.81
2022-08-17T04:07:07.437Z,998.74
2022-08-17T04:08:07.384Z,998.71
2022-08-17T04:09:07.381Z,998.73
2022-08-17T04:10:07.389Z,998.72
2022-08-17T04:11:07.423Z,998.73
2022-08-17T04:12:07.371Z,998.76
2022-08-17T04:13:07.383Z,998.77
2022-08-17T04:14:07.376Z,998.78
2022-08-17T04:15:07.361Z,998.74
2022-08-17T04:16:07.365Z,998.77
2022-08-17T04:17:07.383Z,998.75
2022-08-17T04:18:07.605Z,998.74
2022-08-17T04:19:07.364Z,998.78
2022-08-17T04:20:07.381Z,998.75
2022-08-17T04:21:07.341Z,998.78
2022-08-17T04:22:07.331Z,998.75
2022-08-17T04:23:07.328Z,998.77
2022-08-17T04:24:07.330Z,998.75
2022-08-17T04:25:07.320Z,998.70
2022-08-17T04:26:07.311Z,998.76
2022-08-17T04:27:07.339Z,998.76
2022-08-17T04:28:09.019Z,998.77
2022-08-17T04:29:07.309Z,998.75
2022-08-17T04:30:07.378Z,998.79
2022-08-17T04:31:07.299Z,998.81
2022-08-17T04:32:07.348Z,998.81
2022-08-17T04:33:07.542Z,998.83
2022-08-17T04:34:07.289Z,998.82
2022-08-17T04:35:07.303Z,998.83
2022-08-17T04:36:07.291Z,998.84
2022-08-17T04:37:07.297Z,998.85
2022-08-17T04:38:07.292Z,998.87
2022-08-17T04:39:07.262Z,998.85
2022-08-17T04:40:07.310Z,998.90
2022-08-17T04:41:07.256Z,998.94
2022-08-17T04:42:07.251Z,998.95
2022-08-17T04:43:07.276Z,998.97
2022-08-17T04:44:07.244Z,998.95
2022-08-17T04:45:07.239Z,998.97
2022-08-17T04:46:07.239Z,998.99
2022-08-17T04:47:07.238Z,999.03
2022-08-17T04:48:07.229Z,999.02
2022-08-17T04:49:07.221Z,999.02
2022-08-17T04:50:07.222Z,999.04
2022-08-17T04:51:07.231Z,999.12
2022-08-17T04:52:07.211Z,999.14
2022-08-17T04:53:07.212Z,999.15
2022-08-17T04:54:07.203Z,999.14
2022-08-17T04:55:07.218Z,999.19
2022-08-17T04:56:07.198Z,999.20
2022-08-17T04:57:07.196Z,999.21
2022-08-17T04:58:07.188Z,999.23
2022-08-17T04:59:07.188Z,999.23
2022-08-17T05:00:07.188Z,999.23
2022-08-17T05:01:07.226Z,999.24
2022-08-17T05:02:07.187Z,999.26
2022-08-17T05:03:07.178Z,999.27
2022-08-17T05:04:32.922Z,999.31
2022-08-17T05:05:07.165Z,999.34
2022-08-17T05:06:07.160Z,999.39
2022-08-17T05:07:07.159Z,999.36
2022-08-17T05:08:07.153Z,999.47
2022-08-17T05:09:07.149Z,999.50
2022-08-17T05:10:07.145Z,999.53
2022-08-17T05:11:07.137Z,999.56
2022-08-17T05:12:07.137Z,999.58
2022-08-17T05:13:07.134Z,999.56
2022-08-17T05:14:07.129Z,999.60
2022-08-17T05:15:07.129Z,999.56
2022-08-17T05:16:07.123Z,999.60
2022-08-17T05:17:11.050Z,999.61
2022-08-17T05:18:07.114Z,999.62
2022-08-17T05:19:07.114Z,999.63
2022-08-17T05:20:07.106Z,999.64
2022-08-17T05:21:07.109Z,999.67
2022-08-17T05:22:07.099Z,999.76
2022-08-17T05:23:07.106Z,999.79
2022-08-17T05:24:07.120Z,999.77
2022-08-17T05:25:07.089Z,999.71
2022-08-17T05:26:07.085Z,999.57
2022-08-17T05:27:07.092Z,999.44
2022-08-17T05:28:07.066Z,999.41
2022-08-17T05:29:07.062Z,999.36
2022-08-17T05:30:07.071Z,999.37
2022-08-17T05:31:07.078Z,999.39
2022-08-17T05:32:38.921Z,999.43
2022-08-17T05:33:07.067Z,999.42
2022-08-17T05:34:07.058Z,999.41
2022-08-17T05:35:07.054Z,999.42
2022-08-17T05:36:07.052Z,999.40
2022-08-17T05:37:07.044Z,999.42
2022-08-17T05:38:07.044Z,999.42
2022-08-17T05:39:07.038Z,999.36
2022-08-17T05:40:07.127Z,999.37
2022-08-17T05:41:07.035Z,999.37
2022-08-17T05:42:07.031Z,999.34
2022-08-17T05:43:07.028Z,999.39
2022-08-17T05:44:07.024Z,999.39
2022-08-17T05:45:07.020Z,999.37
2022-08-17T05:46:07.017Z,999.37
2022-08-17T05:47:07.014Z,999.40
2022-08-17T05:48:07.012Z,999.41
2022-08-17T05:49:07.004Z,999.45
2022-08-17T05:50:09.850Z,999.46
2022-08-17T05:51:07.004Z,999.42
2022-08-17T05:52:06.999Z,999.38
2022-08-17T05:53:06.994Z,999.33
2022-08-17T05:54:06.991Z,999.35
2022-08-17T05:55:06.985Z,999.37
2022-08-17T05:56:08.374Z,999.46
2022-08-17T05:57:06.982Z,999.46
2022-08-17T05:58:06.978Z,999.44
2022-08-17T05:59:06.978Z,999.43
2022-08-17T06:00:06.969Z,999.43
2022-08-17T06:01:06.990Z,999.36
2022-08-17T06:02:06.973Z,999.31
2022-08-17T06:03:06.962Z,999.36
2022-08-17T06:04:06.957Z,999.41
2022-08-17T06:05:06.960Z,999.44
2022-08-17T06:06:06.951Z,999.49
2022-08-17T06:07:06.951Z,999.49
2022-08-17T06:08:06.943Z,999.47
2022-08-17T06:09:06.942Z,999.47
2022-08-17T06:10:06.940Z,999.52
2022-08-17T06:11:06.936Z,999.53
2022-08-17T06:12:06.932Z,999.55
2022-08-17T06:13:06.930Z,999.53
2022-08-17T06:14:06.922Z,999.56
2022-08-17T06:15:06.927Z,999.52
2022-08-17T06:16:33.594Z,999.50
2022-08-17T06:17:06.919Z,999.48
2022-08-17T06:18:06.943Z,999.57
2022-08-17T06:19:06.914Z,999.60
2022-08-17T06:20:06.907Z,999.64
2022-08-17T06:21:06.906Z,999.68
2022-08-17T06:22:06.906Z,999.72
2022-08-17T06:23:06.900Z,999.71
2022-08-17T06:24:06.896Z,999.74
2022-08-17T06:25:10.249Z,999.78
2022-08-17T06:26:06.891Z,999.77
2022-08-17T06:27:06.891Z,999.84
2022-08-17T06:28:06.884Z,999.83
2022-08-17T06:29:08.237Z,999.76
2022-08-17T06:30:06.879Z,999.76
2022-08-17T06:31:06.878Z,999.75
2022-08-17T06:32:06.871Z,999.76
2022-08-17T06:33:06.866Z,999.75
2022-08-17T06:34:06.898Z,999.76
2022-08-17T06:35:06.870Z,999.71
2022-08-17T06:36:09.594Z,999.68
2022-08-17T06:37:06.858Z,999.66
2022-08-17T06:38:06.857Z,999.65
2022-08-17T06:39:06.851Z,999.61
2022-08-17T06:40:06.889Z,999.61
2022-08-17T06:41:06.852Z,999.69
2022-08-17T06:42:06.846Z,999.65
2022-08-17T06:43:07.346Z,999.73
2022-08-17T06:44:06.841Z,999.63
2022-08-17T06:45:06.836Z,999.63
2022-08-17T06:46:06.845Z,999.63
2022-08-17T06:47:06.831Z,999.61
2022-08-17T06:48:06.826Z,999.61
2022-08-17T06:49:06.825Z,999.63
2022-08-17T06:50:06.819Z,999.62
2022-08-17T06:51:06.816Z,999.59
2022-08-17T06:52:06.808Z,999.58
2022-08-17T06:53:06.812Z,999.56
2022-08-17T06:54:06.807Z,999.58
2022-08-17T06:55:06.806Z,999.64
2022-08-17T06:56:06.802Z,999.64
2022-08-17T06:57:06.802Z,999.59
2022-08-17T06:58:15.813Z,999.60
2022-08-17T06:59:06.793Z,999.63
2022-08-17T07:00:06.789Z,999.76
2022-08-17T07:01:06.953Z,999.76
2022-08-17T07:02:06.785Z,999.72
2022-08-17T07:03:07.136Z,999.66
2022-08-17T07:04:12.022Z,999.66
2022-08-17T07:05:06.777Z,999.77
2022-08-17T07:06:06.773Z,999.75
2022-08-17T07:07:06.772Z,999.77
2022-08-17T07:08:06.767Z,999.73
2022-08-17T07:09:06.765Z,999.68
2022-08-17T07:10:06.761Z,999.64
2022-08-17T07:11:06.760Z,999.70
2022-08-17T07:12:06.756Z,999.74
2022-08-17T07:13:06.754Z,999.72
2022-08-17T07:14:06.758Z,999.70
2022-08-17T07:15:06.751Z,999.64
2022-08-17T07:16:06.746Z,999.59
2022-08-17T07:17:06.740Z,999.56
2022-08-17T07:18:06.740Z,999.60
2022-08-17T07:19:06.749Z,999.61
2022-08-17T07:20:06.741Z,999.63
2022-08-17T07:21:06.731Z,999.55
2022-08-17T07:22:06.727Z,999.60
2022-08-17T07:23:06.726Z,999.66
2022-08-17T07:24:06.720Z,999.71
2022-08-17T07:25:06.718Z,999.77
2022-08-17T07:26:06.720Z,999.82
2022-08-17T07:27:06.713Z,999.80
2022-08-17T07:28:07.319Z,999.85
2022-08-17T07:29:06.707Z,999.85
2022-08-17T07:30:10.376Z,999.85
2022-08-17T07:31:06.704Z,999.90
2022-08-17T07:32:06.700Z,999.93
2022-08-17T07:33:06.697Z,999.90
2022-08-17T07:34:06.712Z,999.85
2022-08-17T07:35:06.694Z,999.79
2022-08-17T07:36:06.685Z,999.81
2022-08-17T07:37:06.692Z,999.86
2022-08-17T07:38:06.684Z,999.92
2022-08-17T07:39:06.682Z,1000.03
2022-08-17T07:40:15.996Z,999.99
2022-08-17T07:41:06.677Z,999.95
2022-08-17T07:42:06.670Z,999.91
2022-08-17T07:43:06.670Z,999.82
2022-08-17T07:44:06.667Z,999.74
2022-08-17T07:45:06.664Z,999.72
2022-08-17T07:46:06.661Z,999.73
2022-08-17T07:47:06.660Z,999.73
2022-08-17T07:48:06.652Z,999.78
2022-08-17T07:49:06.650Z,999.81
2022-08-17T07:50:06.650Z,999.85
2022-08-17T07:51:06.646Z,999.91
2022-08-17T07:52:48.492Z,999.95
2022-08-17T07:53:06.640Z,999.92
2022-08-17T07:54:14.590Z,999.98
2022-08-17T07:55:06.637Z,1000.07
2022-08-17T07:56:06.630Z,1000.19
2022-08-17T07:57:06.628Z,1000.27
2022-08-17T07:58:06.623Z,1000.26
2022-08-17T07:59:06.623Z,1000.21
2022-08-17T08:00:06.620Z,1000.22
2022-08-17T08:01:06.618Z,1000.27
2022-08-17T08:02:06.664Z,1000.33
2022-08-17T08:03:06.613Z,1000.39
2022-08-17T08:04:06.608Z,1000.37
2022-08-17T08:05:08.935Z,1000.35
2022-08-17T08:06:06.604Z,1000.33
2022-08-17T08:07:06.601Z,1000.35
2022-08-17T08:08:06.597Z,1000.39
2022-08-17T08:09:06.594Z,1000.44
2022-08-17T08:10:06.592Z,1000.47
2022-08-17T08:11:06.589Z,1000.55
2022-08-17T08:12:06.584Z,1000.49
2022-08-17T08:13:06.583Z,1000.45
2022-08-17T08:14:06.577Z,1000.44
2022-08-17T08:15:06.576Z,1000.48
2022-08-17T08:16:06.584Z,1000.48
2022-08-17T08:17:06.573Z,1000.49
2022-08-17T08:18:06.570Z,1000.53
2022-08-17T08:19:06.565Z,1000.56
2022-08-17T08:20:52.763Z,1000.61
2022-08-17T08:21:06.558Z,1000.62
2022-08-17T08:22:06.560Z,1000.69
2022-08-17T08:23:06.555Z,1000.71
2022-08-17T08:24:06.544Z,1000.76
2022-08-17T08:25:06.547Z,1000.75
2022-08-17T08:26:06.542Z,1000.71
2022-08-17T08:27:06.543Z,1000.70
2022-08-17T08:28:06.538Z,1000.71
2022-08-17T08:29:06.538Z,1000.66
2022-08-17T08:30:06.536Z,1000.67
2022-08-17T08:31:06.542Z,1000.68
2022-08-17T08:32:06.524Z,1000.63
2022-08-17T08:33:06.523Z,1000.60
2022-08-17T08:34:06.526Z,1000.60
2022-08-17T08:35:06.527Z,1000.56
2022-08-17T08:36:06.518Z,1000.46
2022-08-17T08:37:17.162Z,1000.40
2022-08-17T08:38:06.513Z,1000.35
2022-08-17T08:39:06.506Z,1000.29
2022-08-17T08:40:06.559Z,1000.25
2022-08-17T08:41:06.502Z,1000.29
2022-08-17T08:42:06.499Z,1000.31
2022-08-17T08:43:06.499Z,1000.32
2022-08-17T08:44:06.495Z,1000.29
2022-08-17T08:45:06.491Z,1000.26
2022-08-17T08:46:06.490Z,1000.19
2022-08-17T08:47:06.486Z,1000.23
2022-08-17T08:48:06.484Z,1000.26
2022-08-17T08:49:12.092Z,1000.27
2022-08-17T08:50:06.479Z,1000.23
2022-08-17T08:51:06.470Z,1000.26
2022-08-17T08:52:06.472Z,1000.30
2022-08-17T08:53:06.475Z,1000.37
2022-08-17T08:54:06.467Z,1000.38
2022-08-17T08:55:06.463Z,1000.30
2022-08-17T08:56:06.461Z,1000.32
2022-08-17T08:57:36.413Z,1000.32
2022-08-17T08:58:06.455Z,1000.34
2022-08-17T08:59:06.448Z,1000.35
2022-08-17T09:00:06.450Z,1000.32
2022-08-17T09:01:06.530Z,1000.37
2022-08-17T09:02:06.510Z,1000.38
2022-08-17T09:03:06.471Z,1000.37
2022-08-17T09:04:23.233Z,1000.36
2022-08-17T09:05:15.002Z,1000.31
2022-08-17T09:06:06.434Z,1000.28
2022-08-17T09:07:06.439Z,1000.27
2022-08-17T09:08:06.427Z,1000.30
2022-08-17T09:09:06.418Z,1000.34
2022-08-17T09:10:06.430Z,1000.38
2022-08-17T09:11:06.421Z,1000.39
2022-08-17T09:12:06.416Z,1000.46
2022-08-17T09:13:10.116Z,1000.43
2022-08-17T09:14:06.399Z,1000.41
2022-08-17T09:15:12.345Z,1000.47
2022-08-17T09:16:06.403Z,1000.46
2022-08-17T09:17:06.403Z,1000.47
2022-08-17T09:18:59.896Z,1000.57
2022-08-17T09:19:06.610Z,1000.68
2022-08-17T09:20:06.394Z,1000.73
2022-08-17T09:21:06.390Z,1000.78
2022-08-17T09:22:06.385Z,1000.80
2022-08-17T09:23:06.388Z,1000.88
2022-08-17T09:24:06.383Z,1000.89
2022-08-17T09:25:06.430Z,1000.90
2022-08-17T09:26:06.378Z,1000.97
2022-08-17T09:27:06.375Z,1000.92
2022-08-17T09:28:06.373Z,1000.92
2022-08-17T09:29:06.367Z,1000.92
2022-08-17T09:30:06.361Z,1000.94
2022-08-17T09:31:06.365Z,1000.93
2022-08-17T09:32:06.364Z,1000.96
2022-08-17T09:33:06.361Z,1000.92
2022-08-17T09:34:06.350Z,1000.93
2022-08-17T09:35:06.375Z,1000.88
2022-08-17T09:36:06.359Z,1000.83
2022-08-17T09:37:06.353Z,1000.85
2022-08-17T09:38:06.355Z,1000.84
2022-08-17T09:39:06.345Z,1000.74
2022-08-17T09:40:06.410Z,1000.73
2022-08-17T09:41:06.340Z,1000.72
2022-08-17T09:42:06.342Z,1000.72
2022-08-17T09:43:06.337Z,1000.74
2022-08-17T09:44:08.557Z,1000.77
2022-08-17T09:45:06.330Z,1000.77
2022-08-17T09:46:06.334Z,1000.84
2022-08-17T09:47:06.331Z,1000.84
2022-08-17T09:48:06.330Z,1000.86
2022-08-17T09:49:06.322Z,1000.90
2022-08-17T09:50:06.327Z,1000.90
2022-08-17T09:51:06.764Z,1000.97
2022-08-17T09:52:06.323Z,1001.01
2022-08-17T09:53:06.330Z,1001.04
2022-08-17T09:54:37.029Z,1001.10
2022-08-17T09:55:06.316Z,1001.09
2022-08-17T09:56:06.315Z,1001.11
2022-08-17T09:57:28.610Z,1001.12
2022-08-17T09:58:06.313Z,1001.12
2022-08-17T09:59:06.309Z,1001.08
2022-08-17T10:00:06.305Z,1001.07
2022-08-17T10:01:06.356Z,1001.01
2022-08-17T10:02:06.302Z,1001.00
2022-08-17T10:03:06.302Z,1001.01
2022-08-17T10:04:06.299Z,1001.00
2022-08-17T10:05:06.297Z,1001.02
2022-08-17T10:06:06.584Z,1001.02
2022-08-17T10:07:06.292Z,1001.05
2022-08-17T10:08:06.294Z,1001.09
2022-08-17T10:09:06.290Z,1001.16
2022-08-17T10:10:09.633Z,1001.15
2022-08-17T10:11:06.291Z,1001.18
2022-08-17T10:12:06.291Z,1001.11
2022-08-17T10:13:06.294Z,1001.09
2022-08-17T10:14:12.523Z,1001.06
2022-08-17T10:15:08.128Z,1001.00
2022-08-17T10:16:06.284Z,1000.91
2022-08-17T10:17:06.283Z,1000.96
2022-08-17T10:18:06.281Z,1000.97
2022-08-17T10:19:06.268Z,1001.01
2022-08-17T10:20:06.279Z,1000.95
2022-08-17T10:21:06.278Z,1000.89
2022-08-17T10:22:14.955Z,1000.81
2022-08-17T10:23:06.277Z,1000.83
2022-08-17T10:24:06.277Z,1000.82
2022-08-17T10:25:22.962Z,1000.79
2022-08-17T10:26:06.271Z,1000.80
2022-08-17T10:27:06.270Z,1000.82
2022-08-17T10:28:06.269Z,1000.81
2022-08-17T10:29:06.270Z,1000.80
2022-08-17T10:30:06.270Z,1000.82
2022-08-17T10:31:36.240Z,1000.81
2022-08-17T10:32:06.265Z,1000.81
2022-08-17T10:33:06.265Z,1000.83
2022-08-17T10:34:06.264Z,1000.77
2022-08-17T10:35:06.259Z,1000.81
2022-08-17T10:36:10.540Z,1000.82
2022-08-17T10:37:06.259Z,1000.82
2022-08-17T10:38:06.259Z,1000.90
2022-08-17T10:39:06.256Z,1000.91
2022-08-17T10:40:06.307Z,1000.91
2022-08-17T10:41:07.227Z,1001.00
2022-08-17T10:42:06.257Z,1001.02
2022-08-17T10:43:06.250Z,1001.09
2022-08-17T10:44:39.095Z,1001.10
2022-08-17T10:45:06.248Z,1001.10
2022-08-17T10:46:10.671Z,1001.08
2022-08-17T10:47:06.248Z,1001.04
2022-08-17T10:48:07.194Z,1001.02
2022-08-17T10:49:06.245Z,1001.00
2022-08-17T10:50:06.245Z,1000.98
2022-08-17T10:51:06.263Z,1001.04
2022-08-17T10:52:06.241Z,1001.05
2022-08-17T10:53:06.239Z,1001.10
2022-08-17T10:54:06.239Z,1001.09
2022-08-17T10:55:06.241Z,1001.10
2022-08-17T10:56:06.239Z,1001.09
2022-08-17T10:57:06.253Z,1001.13
2022-08-17T10:58:06.234Z,1001.15
2022-08-17T10:59:06.230Z,1001.17
2022-08-17T11:00:06.232Z,1001.15
2022-08-17T11:01:06.299Z,1001.17
2022-08-17T11:02:06.230Z,1001.16
2022-08-17T11:03:06.236Z,1001.18
2022-08-17T11:04:06.225Z,1001.14
2022-08-17T11:05:06.223Z,1001.19
2022-08-17T11:06:06.224Z,1001.18
2022-08-17T11:07:06.219Z,1001.23
2022-08-17T11:08:06.220Z,1001.22
2022-08-17T11:09:06.219Z,1001.17
2022-08-17T11:10:06.216Z,1001.18
2022-08-17T11:11:06.217Z,1001.21
2022-08-17T11:12:06.214Z,1001.23
2022-08-17T11:13:06.201Z,1001.17
2022-08-17T11:14:06.220Z,1001.20
2022-08-17T11:15:06.210Z,1001.11
2022-08-17T11:16:08.420Z,1001.06
2022-08-17T11:17:06.205Z,1001.04
2022-08-17T11:18:06.254Z,1001.09
2022-08-17T11:19:06.202Z,1001.06
2022-08-17T11:20:06.201Z,1001.06
2022-08-17T11:21:06.203Z,1001.06
2022-08-17T11:22:06.199Z,1001.03
2022-08-17T11:23:06.201Z,1001.06
2022-08-17T11:24:06.214Z,1001.05
2022-08-17T11:25:06.196Z,1001.06
2022-08-17T11:26:06.198Z,1001.05
2022-08-17T11:27:06.196Z,1001.05
2022-08-17T11:28:06.194Z,1001.00
2022-08-17T11:29:06.193Z,1000.97
2022-08-17T11:30:06.192Z,1000.94
2022-08-17T11:31:06.191Z,1000.99
2022-08-17T11:32:06.191Z,1000.95
2022-08-17T11:33:06.190Z,1000.99
2022-08-17T11:34:06.188Z,1000.99
2022-08-17T11:35:06.189Z,1001.08
2022-08-17T11:36:06.188Z,1001.05
2022-08-17T11:37:06.187Z,1001.09
2022-08-17T11:38:08.674Z,1001.10
2022-08-17T11:39:06.191Z,1001.04
2022-08-17T11:40:06.333Z,1001.13
2022-08-17T11:41:06.181Z,1001.30
2022-08-17T11:42:06.188Z,1001.36
2022-08-17T11:43:06.189Z,1001.17
2022-08-17T11:44:06.183Z,1001.37
2022-08-17T11:45:06.184Z,1001.25
2022-08-17T11:46:06.187Z,1001.30
2022-08-17T11:47:06.181Z,1001.39
2022-08-17T11:49:06.181Z,1001.38
2022-08-17T11:50:06.187Z,1001.39
2022-08-17T11:51:06.186Z,1001.40
2022-08-17T11:52:06.186Z,1001.43
2022-08-17T11:53:06.187Z,1001.39
2022-08-17T11:54:31.599Z,1001.43
2022-08-17T11:55:31.953Z,1001.34
2022-08-17T11:56:06.235Z,1001.39
2022-08-17T11:57:06.191Z,1001.40
2022-08-17T11:58:06.193Z,1001.38
2022-08-17T11:59:06.190Z,1001.34
2022-08-17T12:00:06.206Z,1001.34
2022-08-17T12:01:06.306Z,1001.36
2022-08-17T12:02:06.199Z,1001.31
2022-08-17T12:03:06.226Z,1001.23
2022-08-17T12:04:06.252Z,1001.27
2022-08-17T12:05:12.064Z,1001.29
2022-08-17T12:06:06.203Z,1001.31
2022-08-17T12:07:06.211Z,1001.35
2022-08-17T12:08:06.207Z,1001.37
2022-08-17T12:09:06.206Z,1001.38
2022-08-17T12:10:06.215Z,1001.33
2022-08-17T12:11:06.212Z,1001.30
2022-08-17T12:12:13.082Z,1001.29
2022-08-17T12:13:06.223Z,1001.31
2022-08-17T12:14:06.219Z,1001.28
2022-08-17T12:15:10.520Z,1001.25
2022-08-17T12:16:06.225Z,1001.19
2022-08-17T12:17:06.234Z,1001.16
2022-08-17T12:18:06.226Z,1001.10
2022-08-17T12:19:06.227Z,1001.14
2022-08-17T12:20:06.230Z,1001.12
2022-08-17T12:21:06.233Z,1001.08